Mr Aries — V7ML4 — position and weather

sailwx.info

Track history (hours):
 
Tides and Currents Weather Stations Pressure Air Temp Water Temp Dewpoint Dewpoint Depression Visibility Wind Speed Wind Dir Waves Ship Positions

Mr Aries

Last reported at 2016-Sep-19 12:11 UTC. Time now 2016-Oct-01 04:59 UTC.
Position N 49°47' W 004°10'.
Warning: this ship's position is 11 days out of date.

Length 183 m; draft 9.8 m.

Type: Ship. MMSI: 538002869.

Date/timePositionNaut miles runAvg speedWind from/ knotsBaromVisibWave heightAir tempDewpointWater temp
2016-Sep-19 12:11N 49°47' W 004°10'3713.9
2016-Sep-19 09:33N 49°56' W 003°15'12714.0
2016-Sep-19 00:31N 50°28' W 000°03'6012.1
2016-Sep-18 19:32N 50°57' E 001°21'13212.7
2016-Sep-18 09:09N 52°30' E 003°51'33 4.3
2016-Sep-18 01:25N 52°25' E 004°45'0 0.0
2016-Sep-18 00:26N 52°25' E 004°45'0 0.0
2016-Sep-17 22:31N 52°25' E 004°45'0 0.0
2016-Sep-17 21:31N 52°25' E 004°45'0 0.0
2016-Sep-17 20:31N 52°25' E 004°45'0 0.0
2016-Sep-17 19:13N 52°25' E 004°45'0 0.0
2016-Sep-17 13:31N 52°25' E 004°45'0 0.0
2016-Sep-17 12:28N 52°25' E 004°45'0 0.0
2016-Sep-17 10:31N 52°25' E 004°45'0 0.0
2016-Sep-17 09:25N 52°25' E 004°45'0 0.0
2016-Sep-17 08:19N 52°25' E 004°45'0 0.0
2016-Sep-17 05:28N 52°25' E 004°45'0 0.0
2016-Sep-17 04:19N 52°25' E 004°45'0 0.0
2016-Sep-17 00:25N 52°25' E 004°45'0 0.0
2016-Sep-16 17:22N 52°25' E 004°45'0 0.0
2016-Sep-16 12:31N 52°25' E 004°45'0 0.0
2016-Sep-16 09:13N 52°25' E 004°45'0 0.0
2016-Sep-16 03:31N 52°25' E 004°45'0 0.0
2016-Sep-16 02:31N 52°25' E 004°45'0 0.0
2016-Sep-16 00:25N 52°25' E 004°45'0 0.0
2016-Sep-15 22:19N 52°25' E 004°45'0 0.0
2016-Sep-15 21:19N 52°25' E 004°45'0 0.0
2016-Sep-15 20:26N 52°25' E 004°45'0 0.0
2016-Sep-15 18:28N 52°25' E 004°45'18 1.3
2016-Sep-15 04:33N 52°29' E 004°16'5 4.5
2016-Sep-15 03:31N 52°28' E 004°08'0 0.0
2016-Sep-15 01:31N 52°28' E 004°08'0 0.1
2016-Sep-14 22:31N 52°28' E 004°08'0 0.0
2016-Sep-14 21:31N 52°28' E 004°08'0 0.0
2016-Sep-14 17:31N 52°28' E 004°08'0 0.1
2016-Sep-14 16:31N 52°28' E 004°08'0 0.0
2016-Sep-14 13:31N 52°28' E 004°08'0 0.0
2016-Sep-14 12:31N 52°28' E 004°08'0 0.1
2016-Sep-14 10:31N 52°28' E 004°08'0 0.0
2016-Sep-14 09:31N 52°28' E 004°08'0 0.0
2016-Sep-14 08:25N 52°28' E 004°08'0 0.0
2016-Sep-14 07:31N 52°28' E 004°08'0 0.0
2016-Sep-14 06:31N 52°28' E 004°08'0 0.1
2016-Sep-14 03:28N 52°28' E 004°08'0 0.0
2016-Sep-13 22:31N 52°28' E 004°08'0 0.1
2016-Sep-13 20:19N 52°28' E 004°08'0 0.0
2016-Sep-13 18:31N 52°28' E 004°08'0 0.1
2016-Sep-13 17:28N 52°28' E 004°08'0 0.2
2016-Sep-13 16:28N 52°28' E 004°08'0 0.0
2016-Sep-13 11:28N 52°28' E 004°08'0 0.1
2016-Sep-13 09:31N 52°28' E 004°08'0 0.1
2016-Sep-13 07:31N 52°28' E 004°08'0 0.0
2016-Sep-13 06:28N 52°28' E 004°08'0 0.1
2016-Sep-13 04:22N 52°28' E 004°08'0 0.0
2016-Sep-13 02:31N 52°28' E 004°08'0 0.0
2016-Sep-12 23:31N 52°28' E 004°08'0 0.1
2016-Sep-12 21:31N 52°28' E 004°08'0 0.1
2016-Sep-12 19:25N 52°28' E 004°08'0 0.0
2016-Sep-12 17:31N 52°28' E 004°08'0 0.1
2016-Sep-12 14:31N 52°28' E 004°08'3 3.4
2016-Sep-12 13:33N 52°28' E 004°03'1211.7
2016-Sep-12 12:33N 52°19' E 003°52'1514.5
2016-Sep-12 11:33N 52°04' E 003°55'10 9.6
2016-Sep-12 10:33N 51°58' E 004°07'5 1.5
2016-Sep-12 07:24N 51°55' E 004°13'0 0.0
2016-Sep-12 06:33N 51°55' E 004°13'0 0.0
2016-Sep-12 03:33N 51°55' E 004°13'0 0.0
2016-Sep-12 01:33N 51°55' E 004°13'0 0.0
2016-Sep-11 23:33N 51°55' E 004°13'0 0.0
2016-Sep-11 22:33N 51°55' E 004°13'0 0.0
2016-Sep-11 21:33N 51°55' E 004°13'0 0.0
2016-Sep-11 20:27N 51°55' E 004°13'0 0.0
2016-Sep-11 19:30N 51°55' E 004°13'0 0.0
2016-Sep-11 18:33N 51°55' E 004°13'0 0.0
2016-Sep-11 17:33N 51°55' E 004°13'0 0.0
2016-Sep-11 16:33N 51°55' E 004°13'0 0.0
2016-Sep-11 15:15N 51°55' E 004°13'0 0.0
2016-Sep-11 14:33N 51°55' E 004°13'0 0.0
2016-Sep-11 13:27N 51°55' E 004°13'0 0.0
2016-Sep-11 12:33N 51°55' E 004°13'0 0.0
2016-Sep-11 11:27N 51°55' E 004°13'0 0.0
2016-Sep-11 10:33N 51°55' E 004°13'0 0.0
2016-Sep-11 08:30N 51°55' E 004°13'0 0.0
2016-Sep-11 07:33N 51°55' E 004°13'0 0.0
2016-Sep-11 03:33N 51°55' E 004°13'0 0.0
2016-Sep-11 02:27N 51°55' E 004°13'0 0.0
2016-Sep-11 01:30N 51°55' E 004°13'0 0.1
2016-Sep-11 00:34N 51°55' E 004°13'5 5.0
2016-Sep-10 23:34N 51°58' E 004°06'1211.5
2016-Sep-10 22:34N 52°00' E 003°48'8 6.5
2016-Sep-10 21:21N 51°56' E 003°37'0 0.0
2016-Sep-10 20:30N 51°56' E 003°37'0 0.0
2016-Sep-10 15:18N 51°56' E 003°37'0 0.0
2016-Sep-10 14:21N 51°56' E 003°37'0 0.0
2016-Sep-10 13:33N 51°56' E 003°37'0 0.2
2016-Sep-10 12:33N 51°56' E 003°37'0 0.0
2016-Sep-10 04:09N 51°56' E 003°37'0 0.1
2016-Sep-10 02:30N 51°56' E 003°37'0 0.0
2016-Sep-10 01:33N 51°56' E 003°37'0 0.0
2016-Sep-10 00:18N 51°56' E 003°37'0 0.1
2016-Sep-09 23:33N 51°56' E 003°37'0 0.1
2016-Sep-09 22:21N 51°56' E 003°37'0 0.0
2016-Sep-09 21:33N 51°56' E 003°37'0 0.0
2016-Sep-09 20:12N 51°56' E 003°37'0 0.0
2016-Sep-09 19:30N 51°56' E 003°37'0 0.0
2016-Sep-09 17:27N 51°56' E 003°37'0 0.0
2016-Sep-09 16:33N 51°56' E 003°37'  
Track history (hours):
 
Tides and Currents Weather Stations Pressure Air Temp Water Temp Dewpoint Dewpoint Depression Visibility Wind Speed Wind Dir Waves Ship Positions

Mr Aries

Last reported at 2016-Sep-19 12:11 UTC. Time now 2016-Oct-01 04:59 UTC.
Position N 49°47' W 004°10'.
Warning: this ship's position is 11 days out of date.

Length 183 m; draft 9.8 m.

Type: Ship. MMSI: 538002869.

Date/timePositionNaut miles runAvg speedWind from/ knotsBaromVisibWave heightAir tempDewpointWater temp
2016-Sep-19 12:11N 49°47' W 004°10'3713.9
2016-Sep-19 09:33N 49°56' W 003°15'12714.0
2016-Sep-19 00:31N 50°28' W 000°03'6012.1
2016-Sep-18 19:32N 50°57' E 001°21'13212.7
2016-Sep-18 09:09N 52°30' E 003°51'33 4.3
2016-Sep-18 01:25N 52°25' E 004°45'0 0.0
2016-Sep-18 00:26N 52°25' E 004°45'0 0.0
2016-Sep-17 22:31N 52°25' E 004°45'0 0.0
2016-Sep-17 21:31N 52°25' E 004°45'0 0.0
2016-Sep-17 20:31N 52°25' E 004°45'0 0.0
2016-Sep-17 19:13N 52°25' E 004°45'0 0.0
2016-Sep-17 13:31N 52°25' E 004°45'0 0.0
2016-Sep-17 12:28N 52°25' E 004°45'0 0.0
2016-Sep-17 10:31N 52°25' E 004°45'0 0.0
2016-Sep-17 09:25N 52°25' E 004°45'0 0.0
2016-Sep-17 08:19N 52°25' E 004°45'0 0.0
2016-Sep-17 05:28N 52°25' E 004°45'0 0.0
2016-Sep-17 04:19N 52°25' E 004°45'0 0.0
2016-Sep-17 00:25N 52°25' E 004°45'0 0.0
2016-Sep-16 17:22N 52°25' E 004°45'0 0.0
2016-Sep-16 12:31N 52°25' E 004°45'0 0.0
2016-Sep-16 09:13N 52°25' E 004°45'0 0.0
2016-Sep-16 03:31N 52°25' E 004°45'0 0.0
2016-Sep-16 02:31N 52°25' E 004°45'0 0.0
2016-Sep-16 00:25N 52°25' E 004°45'0 0.0
2016-Sep-15 22:19N 52°25' E 004°45'0 0.0
2016-Sep-15 21:19N 52°25' E 004°45'0 0.0
2016-Sep-15 20:26N 52°25' E 004°45'0 0.0
2016-Sep-15 18:28N 52°25' E 004°45'18 1.3
2016-Sep-15 04:33N 52°29' E 004°16'5 4.5
2016-Sep-15 03:31N 52°28' E 004°08'0 0.0
2016-Sep-15 01:31N 52°28' E 004°08'0 0.1
2016-Sep-14 22:31N 52°28' E 004°08'0 0.0
2016-Sep-14 21:31N 52°28' E 004°08'0 0.0
2016-Sep-14 17:31N 52°28' E 004°08'0 0.1
2016-Sep-14 16:31N 52°28' E 004°08'0 0.0
2016-Sep-14 13:31N 52°28' E 004°08'0 0.0
2016-Sep-14 12:31N 52°28' E 004°08'0 0.1
2016-Sep-14 10:31N 52°28' E 004°08'0 0.0
2016-Sep-14 09:31N 52°28' E 004°08'0 0.0
2016-Sep-14 08:25N 52°28' E 004°08'0 0.0
2016-Sep-14 07:31N 52°28' E 004°08'0 0.0
2016-Sep-14 06:31N 52°28' E 004°08'0 0.1
2016-Sep-14 03:28N 52°28' E 004°08'0 0.0
2016-Sep-13 22:31N 52°28' E 004°08'0 0.1
2016-Sep-13 20:19N 52°28' E 004°08'0 0.0
2016-Sep-13 18:31N 52°28' E 004°08'0 0.1
2016-Sep-13 17:28N 52°28' E 004°08'0 0.2
2016-Sep-13 16:28N 52°28' E 004°08'0 0.0
2016-Sep-13 11:28N 52°28' E 004°08'0 0.1
2016-Sep-13 09:31N 52°28' E 004°08'0 0.1
2016-Sep-13 07:31N 52°28' E 004°08'0 0.0
2016-Sep-13 06:28N 52°28' E 004°08'0 0.1
2016-Sep-13 04:22N 52°28' E 004°08'0 0.0
2016-Sep-13 02:31N 52°28' E 004°08'0 0.0
2016-Sep-12 23:31N 52°28' E 004°08'0 0.1
2016-Sep-12 21:31N 52°28' E 004°08'0 0.1
2016-Sep-12 19:25N 52°28' E 004°08'0 0.0
2016-Sep-12 17:31N 52°28' E 004°08'0 0.1
2016-Sep-12 14:31N 52°28' E 004°08'3 3.4
2016-Sep-12 13:33N 52°28' E 004°03'1211.7
2016-Sep-12 12:33N 52°19' E 003°52'1514.5
2016-Sep-12 11:33N 52°04' E 003°55'10 9.6
2016-Sep-12 10:33N 51°58' E 004°07'5 1.5
2016-Sep-12 07:24N 51°55' E 004°13'0 0.0
2016-Sep-12 06:33N 51°55' E 004°13'0 0.0
2016-Sep-12 03:33N 51°55' E 004°13'0 0.0
2016-Sep-12 01:33N 51°55' E 004°13'0 0.0
2016-Sep-11 23:33N 51°55' E 004°13'0 0.0
2016-Sep-11 22:33N 51°55' E 004°13'0 0.0
2016-Sep-11 21:33N 51°55' E 004°13'0 0.0
2016-Sep-11 20:27N 51°55' E 004°13'0 0.0
2016-Sep-11 19:30N 51°55' E 004°13'0 0.0
2016-Sep-11 18:33N 51°55' E 004°13'0 0.0
2016-Sep-11 17:33N 51°55' E 004°13'0 0.0
2016-Sep-11 16:33N 51°55' E 004°13'0 0.0
2016-Sep-11 15:15N 51°55' E 004°13'0 0.0
2016-Sep-11 14:33N 51°55' E 004°13'0 0.0
2016-Sep-11 13:27N 51°55' E 004°13'0 0.0
2016-Sep-11 12:33N 51°55' E 004°13'0 0.0
2016-Sep-11 11:27N 51°55' E 004°13'0 0.0
2016-Sep-11 10:33N 51°55' E 004°13'0 0.0
2016-Sep-11 08:30N 51°55' E 004°13'0 0.0
2016-Sep-11 07:33N 51°55' E 004°13'0 0.0
2016-Sep-11 03:33N 51°55' E 004°13'0 0.0
2016-Sep-11 02:27N 51°55' E 004°13'0 0.0
2016-Sep-11 01:30N 51°55' E 004°13'0 0.1
2016-Sep-11 00:34N 51°55' E 004°13'5 5.0
2016-Sep-10 23:34N 51°58' E 004°06'1211.5
2016-Sep-10 22:34N 52°00' E 003°48'8 6.5
2016-Sep-10 21:21N 51°56' E 003°37'0 0.0
2016-Sep-10 20:30N 51°56' E 003°37'0 0.0
2016-Sep-10 15:18N 51°56' E 003°37'0 0.0
2016-Sep-10 14:21N 51°56' E 003°37'0 0.0
2016-Sep-10 13:33N 51°56' E 003°37'0 0.2
2016-Sep-10 12:33N 51°56' E 003°37'0 0.0
2016-Sep-10 04:09N 51°56' E 003°37'0 0.1
2016-Sep-10 02:30N 51°56' E 003°37'0 0.0
2016-Sep-10 01:33N 51°56' E 003°37'0 0.0
2016-Sep-10 00:18N 51°56' E 003°37'0 0.1
2016-Sep-09 23:33N 51°56' E 003°37'0 0.1
2016-Sep-09 22:21N 51°56' E 003°37'0 0.0
2016-Sep-09 21:33N 51°56' E 003°37'0 0.0
2016-Sep-09 20:12N 51°56' E 003°37'0 0.0
2016-Sep-09 19:30N 51°56' E 003°37'0 0.0
2016-Sep-09 17:27N 51°56' E 003°37'0 0.0
2016-Sep-09 16:33N 51°56' E 003°37'  

Dump ship's entire track history